NCAR-RAP Real-Time Weather Data

Output produced by METARs form (17 September 2019  16:12 UTC)
found at http://weather.rap.ucar.edu/surface/
 
KCAK 171551Z 01006KT 10SM BKN009 OVC018 21/17 A3020 RMK AO2 SLP221 T02110172
KCAK 171451Z 04008KT 3SM BR OVC007 19/17 A3020 RMK AO2 SFC VIS 5 SLP220 T01940172 51012
KCAK 171400Z 02007KT 3SM BR OVC005 19/17 A3019 RMK AO2 T01890172
KCAK 171351Z 02007KT 1 1/2SM BR OVC004 19/17 A3019 RMK AO2 SFC VIS 2 SLP218 T01890172
KCAK 171251Z 04005KT 1 1/2SM BR OVC003 18/17 A3018 RMK AO2 SLP213 VIS 1V2 T01780172
KCAK 171151Z 05005KT 3/4SM R23/5500VP6000FT BR OVC002 18/17 A3016 RMK AO2 SFC VIS 1 SLP207 T01780172 10178 20167 53015
KCAK 171051Z 05007KT 1SM R23/P6000FT BR OVC002 18/17 A3014 RMK AO2 SFC VIS 2 SLP199 T01780172
KCAK 170951Z 05006KT 1 1/2SM BR OVC002 18/17 A3013 RMK AO2 SLP193 T01780167
KCAK 170928Z 05007KT 2 1/2SM BR OVC002 18/17 A3012 RMK AO2 T01780167
KCAK 170851Z 04008KT 4SM BR OVC003 18/17 A3012 RMK AO2 SLP190 T01780167 55002
KCAK 170814Z 04009KT 4SM BR OVC003 18/17 A3012 RMK AO2 T01780167
KCAK 170751Z 04008KT 5SM BR BKN005 18/17 A3011 RMK AO2 SLP188 T01780167
KCAK 170710Z 03006KT 5SM BR FEW006 17/16 A3011 RMK AO2 T01670161
KCAK 170651Z 02007KT 8SM CLR 17/16 A3012 RMK AO2 SLP191 T01670156
KCAK 170551Z 02007KT 10SM CLR 18/16 A3012 RMK AO2 SLP192 T01780161 10233 20172 53007
KCAK 170451Z 02007KT 10SM CLR 18/16 A3011 RMK AO2 SLP188 T01780161 402940178
KCAK 170351Z 03007KT 10SM FEW060 19/17 A3011 RMK AO2 SLP187 T01890167
KCAK 170251Z 03007KT 10SM FEW060 19/17 A3010 RMK AO2 SLP186 T01890167 51011
KCAK 170051Z 02008KT 10SM FEW060 21/18 A3008 RMK AO2 SLP179 T02110178
KCAK 162351Z 36007KT 10SM BKN060 23/18 A3007 RMK AO2 SLP175 T02330178 10294 20233 53009
KCAK 162251Z 36009KT 10SM FEW050 25/18 A3006 RMK AO2 SLP170 T02500178
KCAK 162151Z 35009KT 10SM SCT050 28/18 A3004 RMK AO2 SLP165 T02830178
KCAK 162051Z 36009KT 10SM FEW042 SCT060 29/18 A3004 RMK AO2 SLP163 T02890178 57008
KCAK 161951Z 02008KT 10SM SCT041 28/18 A3005 RMK AO2 SLP165 T02830183
KCAK 161851Z 01006KT 10SM BKN042 28/18 A3006 RMK AO2 SLP170 T02780178